Nederland, CO

4:58 PM MDT on June 02, 2015 (GMT -0600)
Jeffco | | Change Station
CLOSE
Current Station
Airport
Location: Broomfield,
Elevation: 5656 ft
Nearby Weather Stations
Active Advisory: Flood Advisory

Elev 5656 ft 39.90 °N, 105.10 °W | Updated 12 minutes ago

Partly Cloudy
Partly Cloudy
86 °F
Feels Like 86 °F
N
16
Wind Variable Wind from NNE

Today
High -- | Low -- °F
--% Chance of Precip.
Yesterday
High -- | Low -- °F
Precip. -- in
5:35 AM 8:25 PM
Full, 100% visible
Pressure 29.90 in
Visibility 70.0 miles
Clouds Scattered Clouds 5000 ft
Scattered Clouds 12000 ft
Dew Point 36 °F
Humidity 17%
Rainfall 0.00 in
Snow Depth Not available.
UV 4 out of 12
Pollen 8.70 out of 12
Air Quality Not available.
Flu Activity Sporadic
METAR KBJC 022246Z 02014KT 70SM SCT050 SCT120 30/02 A2990

More Conditions Fewer Conditions

Pressure 29.90 in
Visibility 70.0 miles
Clouds Scattered Clouds 5000 ft
Scattered Clouds 12000 ft
Dew Point 36 °F
Humidity 17%
Rainfall 0.00 in
Snow Depth Not available.
UV 4 out of 12
Pollen 8.70 out of 12
Air Quality Not available.
Flu Activity Sporadic
METAR KBJC 022246Z 02014KT 70SM SCT050 SCT120 30/02 A2990

More Conditions Fewer Conditions

10-Day Weather Forecast

×

Almanac

Astronomy

Jun. 02, 2015 Rise Set
Actual Time
Civil Twilight
Nautical Twilight
Astronomical Twilight
Moon
Length of Visible Light
Length of Day
Tomorrow will be .
, % of the Moon is Illuminated

Today's Extremes

State Highs State Lows

Community

WunderPhotos

Upload Photos

1,826,050 photos uploaded!

WunderBlogs® & News

Nearby

Air Quality

  Air Quality AQ Index Pollutant
Not available.

Snow Depth

Station Depth Elevation

Earthquake Activity

City Distance Mag. Time & Date
Minimum magnitude displayed is 2.5.

Coastal Water Temperatures

Place Temperature

Stations

Nearby Weather Stations

Station Location Temp. Windchill Dew Point Humidity Wind Precip. Elev Updated Type
                   
Flood Advisory
Statement as of 3:57 PM MDT on June 02, 2015

The Flood Advisory continues for
the Cache la poudre river at the canyon mouth.
* Until further notice.
* At 3:45 PM Tuesday the stage was 5.7 feet.
* Flood stage is 7.5 feet.
* Forecast... the river will rise to near 6.5 feet Friday morning.
* Impact... at 6.0 feet... water is over the bike path and trail along
the river in and near Fort Collins.


Lat... Lon 4071 10524 4067 10523 4066 10519 4062 10513
4061 10514 4067 10525